Time;durP1;ratioP1;P1;durP2;ratioP2;P2;SDS_P1;SDS_P2;PMS_P1;PMS_P2;Temp;Humidity;BMP_temperature;BMP_pressure;BME280_temperature;BME280_humidity;BME280_pressure;Samples;Min_cycle;Max_cycle;Signal;HPM_P1;HPM_P2
2021/09/23 00:01:02;;;;;;;1999.90;999.90;;;;;;;10.27;51.58;101779.25;4965174;28;99840;-76
2021/09/23 00:03:55;;;;;;;1999.90;999.90;;;;;;;10.44;51.47;101778.19;4981905;28;100531;-76
2021/09/23 00:06:23;;;;;;;1999.90;999.90;;;;;;;10.58;50.96;101763.63;4996228;28;97169;-76
2021/09/23 00:08:54;;;;;;;1999.90;999.90;;;;;;;10.68;51.10;101753.41;4981148;28;96794;-76
2021/09/23 00:11:22;;;;;;;1999.90;999.90;;;;;;;10.77;50.92;101748.41;4982674;28;100632;-76
2021/09/23 00:13:50;;;;;;;1999.90;999.90;;;;;;;10.85;50.79;101743.34;4985736;28;97568;-76
2021/09/23 00:16:21;;;;;;;1999.90;999.90;;;;;;;10.90;50.78;101739.09;4960136;28;96866;-76
2021/09/23 00:18:51;;;;;;;1999.90;999.90;;;;;;;10.95;50.47;101726.84;4994126;28;96865;-76
2021/09/23 00:21:19;;;;;;;1999.90;999.90;;;;;;;10.99;50.35;101734.09;4985412;28;97818;-76
2021/09/23 00:23:48;;;;;;;1999.90;999.90;;;;;;;11.02;50.26;101734.16;4984539;28;96874;-76
2021/09/23 00:26:17;;;;;;;1999.90;999.90;;;;;;;11.04;50.20;101721.81;4992234;28;98032;-76
2021/09/23 00:28:45;;;;;;;1999.90;999.90;;;;;;;11.03;50.17;101722.69;4967990;28;96705;-77
2021/09/23 00:31:13;;;;;;;1999.90;999.90;;;;;;;11.02;50.19;101726.19;4965913;28;100921;-75
2021/09/23 00:33:41;;;;;;;1999.90;999.90;;;;;;;11.03;50.12;101722.69;4977631;28;99753;-76
2021/09/23 00:36:09;;;;;;;1999.90;999.90;;;;;;;11.02;50.00;101712.88;4983122;28;96807;-76
2021/09/23 00:38:37;;;;;;;1999.90;999.90;;;;;;;11.00;50.06;101717.22;4958478;28;97088;-76
2021/09/23 00:41:05;;;;;;;1999.90;999.90;;;;;;;10.99;50.02;101718.09;4983942;28;98108;-76
2021/09/23 00:43:34;;;;;;;1999.90;999.90;;;;;;;10.98;50.15;101708.28;4966391;28;99228;-76
2021/09/23 00:46:02;;;;;;;1999.90;999.90;;;;;;;10.96;49.96;101697.59;4983619;28;96744;-76
2021/09/23 00:48:30;;;;;;;1999.90;999.90;;;;;;;10.94;50.10;101693.06;4991625;28;96803;-76
2021/09/23 00:50:59;;;;;;;1999.90;999.90;;;;;;;10.93;50.02;101696.56;4982157;28;100387;-76
2021/09/23 00:53:28;;;;;;;1999.90;999.90;;;;;;;10.91;50.29;101695.63;4985164;28;97762;-76
2021/09/23 00:55:57;;;;;;;1999.90;999.90;;;;;;;10.90;50.31;101693.81;4957782;28;98703;-76
2021/09/23 00:58:30;;;;;;;1999.90;999.90;;;;;;;10.89;50.13;101698.22;4965160;28;96854;-76
2021/09/23 01:01:00;;;;;;;1999.90;999.90;;;;;;;10.88;50.32;101676.88;4983056;28;100081;-76
2021/09/23 01:03:29;;;;;;;1999.90;999.90;;;;;;;10.86;50.33;101687.47;4975641;28;97719;-77
2021/09/23 01:06:01;;;;;;;1999.90;999.90;;;;;;;10.84;50.17;101686.53;4965084;28;97567;-76
2021/09/23 01:08:29;;;;;;;1999.90;999.90;;;;;;;10.82;50.47;101682.00;4981240;28;97012;-76
2021/09/23 01:10:58;;;;;;;1999.90;999.90;;;;;;;10.82;50.42;101674.91;4957618;28;99730;-76
2021/09/23 01:13:34;;;;;;;1999.90;999.90;;;;;;;10.82;50.41;101677.56;4964476;28;99166;-76
2021/09/23 01:16:07;;;;;;;1999.90;999.90;;;;;;;10.82;50.33;101676.66;4976542;28;97945;-76
2021/09/23 01:18:54;;;;;;;1999.90;999.90;;;;;;;10.81;50.47;101669.53;4981731;28;97265;-76
2021/09/23 01:21:29;;;;;;;1999.90;999.90;;;;;;;10.78;50.11;101665.00;4978903;28;97829;-76
2021/09/23 01:23:57;;;;;;;1999.90;999.90;;;;;;;10.77;50.08;101660.53;4979956;28;99373;-76
2021/09/23 01:26:29;;;;;;;1999.90;999.90;;;;;;;10.69;50.24;101661.13;4974297;28;96973;-76
2021/09/23 01:29:05;;;;;;;1999.90;999.90;;;;;;;10.64;50.36;101657.41;4968246;28;97490;-77
2021/09/23 01:31:37;;;;;;;1999.90;999.90;;;;;;;10.59;50.43;101648.34;4982398;28;97607;-76
2021/09/23 01:34:05;;;;;;;1999.90;999.90;;;;;;;10.56;50.50;101651.81;4965970;28;98906;-76
2021/09/23 01:36:35;;;;;;;1999.90;999.90;;;;;;;10.53;50.46;101638.41;4981855;28;97078;-76
2021/09/23 01:39:03;;;;;;;1999.90;999.90;;;;;;;10.50;50.39;101640.06;4981604;28;96933;-77
2021/09/23 01:41:31;;;;;;;1999.90;999.90;;;;;;;10.48;50.48;101633.78;4981021;28;99506;-76
2021/09/23 01:44:00;;;;;;;1999.90;999.90;;;;;;;10.46;50.61;101631.06;4964630;28;100125;-76
2021/09/23 01:46:29;;;;;;;1999.90;999.90;;;;;;;10.45;50.67;101626.56;4996813;28;96821;-76
2021/09/23 01:49:16;;;;;;;1999.90;999.90;;;;;;;10.42;50.54;101630.88;4980935;28;97094;-76
2021/09/23 01:51:46;;;;;;;1999.90;999.90;;;;;;;10.38;50.51;101623.59;4981308;28;100432;-76
2021/09/23 01:54:14;;;;;;;1999.90;999.90;;;;;;;10.32;50.80;101621.63;4964709;28;98091;-76
2021/09/23 01:56:42;;;;;;;1999.90;999.90;;;;;;;10.29;50.86;101613.56;4980580;28;97499;-76
2021/09/23 01:59:12;;;;;;;1999.90;999.90;;;;;;;10.26;50.85;101607.22;4962924;28;96844;-76
2021/09/23 02:01:40;;;;;;;1999.90;999.90;;;;;;;10.25;50.99;101600.09;4962779;28;100633;-76
2021/09/23 02:04:09;;;;;;;1999.90;999.90;;;;;;;10.25;50.99;101610.75;4955710;28;100187;-76
2021/09/23 02:06:40;;;;;;;1999.90;999.90;;;;;;;10.23;50.92;101602.69;4961971;28;97094;-76
2021/09/23 02:09:09;;;;;;;1999.90;999.90;;;;;;;10.21;51.12;101594.66;4962769;28;96990;-75
2021/09/23 02:11:37;;;;;;;1999.90;999.90;;;;;;;10.21;51.08;101593.75;4963940;28;99512;-76
2021/09/23 02:14:06;;;;;;;1999.90;999.90;;;;;;;10.21;51.12;101583.09;4980009;28;98802;-76
2021/09/23 02:16:34;;;;;;;1999.90;999.90;;;;;;;10.16;51.10;101584.69;4980359;28;96989;-76
2021/09/23 02:19:36;;;;;;;1999.90;999.90;;;;;;;10.13;51.08;101577.53;4980498;28;96934;-76
2021/09/23 02:22:04;;;;;;;1999.90;999.90;;;;;;;10.13;51.21;101573.97;4962339;28;101272;-76
2021/09/23 02:24:35;;;;;;;1999.90;999.90;;;;;;;10.10;51.16;101574.75;4963678;28;99295;-76
2021/09/23 02:27:03;;;;;;;1999.90;999.90;;;;;;;10.10;51.05;101576.53;4990673;28;97093;-76
2021/09/23 02:29:31;;;;;;;1999.90;999.90;;;;;;;10.06;51.18;101570.16;4963129;28;97403;-76
2021/09/23 02:31:59;;;;;;;1999.90;999.90;;;;;;;10.02;51.22;101565.63;4997368;28;99803;-76
2021/09/23 02:34:26;;;;;;;1999.90;999.90;;;;;;;10.00;51.20;101569.97;4962855;28;99226;-75
2021/09/23 02:36:54;;;;;;;1999.90;999.90;;;;;;;9.98;51.03;101569.00;4963030;28;96889;-76
2021/09/23 02:39:23;;;;;;;1999.90;999.90;;;;;;;9.94;51.30;101561.75;4980039;28;96913;-76
2021/09/23 02:41:52;;;;;;;1999.90;999.90;;;;;;;9.89;51.34;101560.69;4957267;28;99465;-76
2021/09/23 02:44:21;;;;;;;1999.90;999.90;;;;;;;9.88;51.34;101560.66;4958140;28;99275;-76
2021/09/23 02:46:48;;;;;;;1999.90;999.90;;;;;;;9.85;51.30;101550.78;4978210;28;97053;-76
2021/09/23 02:49:16;;;;;;;1999.90;999.90;;;;;;;9.82;51.25;101556.00;4980678;28;96763;-76
2021/09/23 02:51:45;;;;;;;1999.90;999.90;;;;;;;9.79;51.44;101549.69;4962992;28;100075;-76
2021/09/23 02:54:12;;;;;;;1999.90;999.90;;;;;;;9.76;51.43;101539.84;4964965;28;97799;-76
2021/09/23 02:56:40;;;;;;;1999.90;999.90;;;;;;;9.72;51.57;101543.22;4990186;28;97084;-75
2021/09/23 02:59:09;;;;;;;1999.90;999.90;;;;;;;9.70;51.40;101534.28;4980097;28;96742;-76
2021/09/23 03:01:38;;;;;;;1999.90;999.90;;;;;;;9.70;51.58;101542.25;4965445;28;99877;-76
2021/09/23 03:04:06;;;;;;;1999.90;999.90;;;;;;;9.69;51.43;101528.91;4966795;28;100000;-76
2021/09/23 03:06:34;;;;;;;1999.90;999.90;;;;;;;9.68;51.56;101524.47;4958249;28;97766;-76
2021/09/23 03:09:02;;;;;;;1999.90;999.90;;;;;;;9.66;51.45;101526.16;4982327;28;97172;-76
2021/09/23 03:11:31;;;;;;;1999.90;999.90;;;;;;;9.66;51.39;101518.19;4963936;28;98263;-76
2021/09/23 03:13:59;;;;;;;1999.90;999.90;;;;;;;9.66;51.52;101519.09;4956179;28;99522;-76
2021/09/23 03:16:28;;;;;;;1999.90;999.90;;;;;;;9.67;51.44;101506.69;4960527;28;97141;-76
2021/09/23 03:18:56;;;;;;;1999.90;999.90;;;;;;;9.66;51.23;101508.47;4963686;28;96736;-76
2021/09/23 03:21:24;;;;;;;1999.90;999.90;;;;;;;9.65;51.44;101504.00;4980320;28;98751;-76
2021/09/23 03:23:52;;;;;;;1999.90;999.90;;;;;;;9.65;51.33;101496.00;4952694;28;101767;-76
2021/09/23 03:26:20;;;;;;;1999.90;999.90;;;;;;;9.66;51.42;101495.19;4963821;28;97061;-76
2021/09/23 03:28:48;;;;;;;1999.90;999.90;;;;;;;9.68;51.28;101487.25;4975596;28;97447;-76
2021/09/23 03:31:16;;;;;;;1999.90;999.90;;;;;;;9.67;51.20;101482.78;4964294;28;100578;-76
2021/09/23 03:33:45;;;;;;;1999.90;999.90;;;;;;;9.67;51.15;101480.13;4972673;28;100732;-76
2021/09/23 03:36:13;;;;;;;1999.90;999.90;;;;;;;9.67;51.09;101478.38;4997344;28;97086;-76
2021/09/23 03:38:41;;;;;;;1999.90;999.90;;;;;;;9.66;51.15;101475.66;4981116;28;97072;-76
2021/09/23 03:41:09;;;;;;;1999.90;999.90;;;;;;;9.63;51.28;101481.78;4971709;28;99388;-76
2021/09/23 03:43:37;;;;;;;1999.90;999.90;;;;;;;9.65;51.10;101474.75;4981107;28;99193;-76
2021/09/23 03:46:05;;;;;;;1999.90;999.90;;;;;;;9.65;51.06;101477.41;4965101;28;97269;-76
2021/09/23 03:48:34;;;;;;;1999.90;999.90;;;;;;;9.65;50.87;101480.06;4978093;28;96832;-76
2021/09/23 03:51:04;;;;;;;1999.90;999.90;;;;;;;9.65;50.96;101460.56;4983803;28;98901;-76
2021/09/23 03:53:33;;;;;;;1999.90;999.90;;;;;;;9.64;50.86;101472.06;4969011;28;99295;-76
2021/09/23 03:56:01;;;;;;;1999.90;999.90;;;;;;;9.64;50.73;101464.06;4961835;28;97577;-76
2021/09/23 03:58:29;;;;;;;1999.90;999.90;;;;;;;9.63;50.74;101457.84;4967599;28;97112;-76
2021/09/23 04:00:57;;;;;;;1999.90;999.90;;;;;;;9.62;50.70;101458.72;4966640;28;100979;-75
2021/09/23 04:03:26;;;;;;;1999.90;999.90;;;;;;;9.59;50.58;101458.59;4966019;28;100627;-76
2021/09/23 04:05:54;;;;;;;1999.90;999.90;;;;;;;9.56;50.79;101458.50;4987829;28;96839;-79
2021/09/23 04:08:24;;;;;;;1999.90;999.90;;;;;;;9.52;50.88;101450.34;4978311;28;97087;-78
2021/09/23 04:10:53;;;;;;;1999.90;999.90;;;;;;;9.50;50.93;101462.69;4972845;28;100487;-78
2021/09/23 04:13:21;;;;;;;1999.90;999.90;;;;;;;9.48;50.97;101459.94;4967160;28;99034;-78
2021/09/23 04:15:52;;;;;;;1999.90;999.90;;;;;;;9.49;50.91;101461.78;4971053;28;97041;-78
2021/09/23 04:18:20;;;;;;;1999.90;999.90;;;;;;;9.51;50.91;101456.50;4987047;28;97340;-78
2021/09/23 04:20:49;;;;;;;1999.90;999.90;;;;;;;9.51;50.80;101454.78;4972206;28;100776;-78
2021/09/23 04:23:17;;;;;;;1999.90;999.90;;;;;;;9.51;50.79;101456.50;4969532;28;99354;-78
2021/09/23 04:25:46;;;;;;;1999.90;999.90;;;;;;;9.47;50.79;101451.91;4981044;28;96819;-78
2021/09/23 04:28:14;;;;;;;1999.90;999.90;;;;;;;9.46;50.80;101448.34;4969653;28;96756;-77
2021/09/23 04:30:42;;;;;;;1999.90;999.90;;;;;;;9.45;50.75;101441.22;4968986;28;99321;-77
2021/09/23 04:33:10;;;;;;;1999.90;999.90;;;;;;;9.41;50.84;101443.72;4987461;28;97128;-78
2021/09/23 04:35:38;;;;;;;1999.90;999.90;;;;;;;9.37;50.88;101423.22;4968354;28;96989;-77
2021/09/23 04:38:06;;;;;;;1999.90;999.90;;;;;;;9.36;50.79;101424.94;4983943;28;96976;-77
2021/09/23 04:40:34;;;;;;;1999.90;999.90;;;;;;;9.38;50.92;101432.97;4967632;28;99693;-77
2021/09/23 04:43:04;;;;;;;1999.90;999.90;;;;;;;9.35;50.75;101422.25;4983896;28;98997;-77
2021/09/23 04:45:32;;;;;;;1999.90;999.90;;;;;;;9.30;50.76;101423.84;4983613;28;96980;-77
2021/09/23 04:48:01;;;;;;;1999.90;999.90;;;;;;;9.26;50.88;101428.13;4977695;28;96880;-77
2021/09/23 04:50:29;;;;;;;1999.90;999.90;;;;;;;9.18;51.02;101434.91;4974749;28;98539;-78
2021/09/23 04:52:57;;;;;;;1999.90;999.90;;;;;;;9.14;51.20;101432.97;4964371;28;97037;-78
2021/09/23 04:55:25;;;;;;;1999.90;999.90;;;;;;;9.10;51.31;101429.31;4964746;28;96971;-78
2021/09/23 04:57:53;;;;;;;1999.90;999.90;;;;;;;9.11;51.22;101432.88;4980663;28;96831;-78
2021/09/23 05:00:23;;;;;;;1999.90;999.90;;;;;;;9.12;51.25;101424.97;4973368;28;99017;-77
2021/09/23 05:02:51;;;;;;;1999.90;999.90;;;;;;;9.11;51.35;101427.56;4982557;28;98994;-77
2021/09/23 05:05:20;;;;;;;1999.90;999.90;;;;;;;9.11;51.27;101428.47;4974403;28;98513;-78
2021/09/23 05:07:48;;;;;;;1999.90;999.90;;;;;;;9.12;51.39;101418.75;4965163;28;96947;-78
2021/09/23 05:10:16;;;;;;;1999.90;999.90;;;;;;;9.10;51.32;101409.81;4965698;28;99408;-78
2021/09/23 05:12:45;;;;;;;1999.90;999.90;;;;;;;9.10;51.47;101407.16;4963252;28;99676;-79
2021/09/23 05:15:13;;;;;;;1999.90;999.90;;;;;;;9.09;51.43;101410.66;4980937;28;96728;-79
2021/09/23 05:17:42;;;;;;;1999.90;999.90;;;;;;;9.08;51.40;101417.72;4977160;28;96844;-77
2021/09/23 05:20:11;;;;;;;1999.90;999.90;;;;;;;9.09;51.30;101411.59;4973842;28;98187;-79
2021/09/23 05:22:39;;;;;;;1999.90;999.90;;;;;;;9.09;51.32;101408.00;4979888;28;100234;-79
2021/09/23 05:25:08;;;;;;;1999.90;999.90;;;;;;;9.08;51.09;101409.75;4978491;28;96861;-79
2021/09/23 05:27:36;;;;;;;1999.90;999.90;;;;;;;9.08;51.47;101406.19;4983363;28;97052;-79
2021/09/23 05:30:06;;;;;;;1999.90;999.90;;;;;;;9.12;51.30;101402.81;4978263;28;99905;-78
2021/09/23 05:32:34;;;;;;;1999.90;999.90;;;;;;;9.13;51.03;101394.00;4981707;28;98693;-77
2021/09/23 05:35:04;;;;;;;1999.90;999.90;;;;;;;9.11;51.20;101393.06;4982692;28;96769;-78
2021/09/23 05:37:32;;;;;;;1999.90;999.90;;;;;;;9.07;51.38;101389.38;4965710;28;97051;-78
2021/09/23 05:40:05;;;;;;;1999.90;999.90;;;;;;;9.09;51.43;101389.44;4971254;28;99271;-77
2021/09/23 05:42:33;;;;;;;1999.90;999.90;;;;;;;9.08;51.51;101395.56;4973135;28;98171;-78
2021/09/23 05:45:02;;;;;;;1999.90;999.90;;;;;;;9.11;51.35;101391.31;4983459;28;96874;-77
2021/09/23 05:47:30;;;;;;;1999.90;999.90;;;;;;;9.13;51.41;101397.53;4980814;28;97174;-78
2021/09/23 05:49:58;;;;;;;1999.90;999.90;;;;;;;9.15;51.43;101398.50;4979938;28;99606;-77
2021/09/23 05:52:27;;;;;;;1999.90;999.90;;;;;;;9.17;51.51;101385.28;4964523;28;99175;-77
2021/09/23 05:54:55;;;;;;;1999.90;999.90;;;;;;;9.20;51.37;101378.38;4982793;28;97142;-77
2021/09/23 05:57:24;;;;;;;1999.90;999.90;;;;;;;9.21;51.49;101376.59;4979695;28;97289;-79
2021/09/23 05:59:52;;;;;;;1999.90;999.90;;;;;;;9.21;51.53;101369.53;4982238;28;99502;-77
2021/09/23 06:02:20;;;;;;;1999.90;999.90;;;;;;;9.23;51.55;101373.16;4980916;28;98957;-77
2021/09/23 06:04:49;;;;;;;1999.90;999.90;;;;;;;9.23;51.44;101369.59;4965242;28;97635;-77
2021/09/23 06:07:18;;;;;;;1999.90;999.90;;;;;;;9.26;51.39;101377.69;4963488;28;97184;-78
2021/09/23 06:09:47;;;;;;;1999.90;999.90;;;;;;;9.26;51.49;101371.47;4963717;28;99356;-78
2021/09/23 06:12:15;;;;;;;1999.90;999.90;;;;;;;9.26;51.49;101372.38;4998272;28;98270;-78
2021/09/23 06:14:43;;;;;;;1999.90;999.90;;;;;;;9.27;51.36;101376.81;4980828;28;96960;-78
2021/09/23 06:17:11;;;;;;;1999.90;999.90;;;;;;;9.31;51.42;101377.81;4981829;28;97012;-76
2021/09/23 06:19:39;;;;;;;1999.90;999.90;;;;;;;9.31;51.49;101381.41;4980615;28;97079;-78
2021/09/23 06:22:07;;;;;;;1999.90;999.90;;;;;;;9.32;51.51;101375.22;4980984;28;101521;-79
2021/09/23 06:24:35;;;;;;;1999.90;999.90;;;;;;;9.34;51.38;101365.56;4963208;28;96873;-78
2021/09/23 06:27:04;;;;;;;1999.90;999.90;;;;;;;9.38;51.37;101356.84;4980661;28;96739;-79
2021/09/23 06:29:32;;;;;;;1999.90;999.90;;;;;;;9.42;51.40;101337.53;4981651;28;98785;-78
2021/09/23 06:32:00;;;;;;;1999.90;999.90;;;;;;;9.44;51.41;101337.56;4976997;28;97848;-78
2021/09/23 06:34:28;;;;;;;1999.90;999.90;;;;;;;9.45;51.41;101336.69;4962021;28;96793;-77
2021/09/23 06:36:56;;;;;;;1999.90;999.90;;;;;;;9.51;51.47;101334.31;4960102;28;97316;-80
2021/09/23 06:39:24;;;;;;;1999.90;999.90;;;;;;;9.57;51.55;101338.06;4979167;28;100591;-80
2021/09/23 06:41:53;;;;;;;1999.90;999.90;;;;;;;9.60;51.54;101338.19;4976131;28;101049;-79
2021/09/23 06:44:23;;;;;;;1999.90;999.90;;;;;;;9.24;52.39;101339.53;4995936;28;97239;-78
2021/09/23 06:46:51;;;;;;;1999.90;999.90;;;;;;;9.54;51.94;101343.28;4963033;28;96653;-80
2021/09/23 06:49:20;;;;;;;1999.90;999.90;;;;;;;9.66;51.65;101345.47;4980184;28;98297;-78
2021/09/23 06:51:48;;;;;;;1999.90;999.90;;;;;;;9.73;51.68;101327.13;4981487;28;100483;-80
2021/09/23 06:54:16;;;;;;;1999.90;999.90;;;;;;;9.80;51.36;101323.81;4981785;28;97344;-79
2021/09/23 06:56:43;;;;;;;1999.90;999.90;;;;;;;9.83;51.28;101318.56;4980318;28;96888;-78
2021/09/23 06:59:11;;;;;;;1999.90;999.90;;;;;;;9.87;51.33;101325.81;4981635;28;99631;-80
2021/09/23 07:01:49;;;;;;;1999.90;999.90;;;;;;;9.91;51.32;101321.50;4955557;28;98340;-79
2021/09/23 07:04:48;;;;;;;1999.90;999.90;;;;;;;9.98;51.26;101329.72;4971463;28;96964;-79
2021/09/23 07:07:26;;;;;;;1999.90;999.90;;;;;;;10.02;51.13;101330.72;4979336;28;96720;-80
2021/09/23 07:09:54;;;;;;;1999.90;999.90;;;;;;;10.07;51.10;101308.72;4964536;28;99873;-79
2021/09/23 07:12:28;;;;;;;1999.90;999.90;;;;;;;10.12;50.95;101307.13;4963858;28;96916;-79
2021/09/23 07:14:56;;;;;;;1999.90;999.90;;;;;;;10.17;50.76;101305.50;4965735;28;96786;-80
2021/09/23 07:17:26;;;;;;;1999.90;999.90;;;;;;;10.20;50.86;101310.94;4968229;28;97215;-78
2021/09/23 07:19:58;;;;;;;1999.90;999.90;;;;;;;10.27;50.67;101319.06;4977846;28;98335;-80
2021/09/23 07:22:26;;;;;;;1999.90;999.90;;;;;;;10.32;50.74;101318.34;4976100;28;99553;-78
2021/09/23 07:24:54;;;;;;;1999.90;999.90;;;;;;;10.36;50.74;101306.97;4979006;28;97090;-78
2021/09/23 07:27:22;;;;;;;1999.90;999.90;;;;;;;10.36;50.69;101317.59;4980526;28;96949;-80
2021/09/23 07:29:50;;;;;;;1999.90;999.90;;;;;;;10.37;50.42;101307.88;4982157;28;97833;-78
2021/09/23 07:32:18;;;;;;;1999.90;999.90;;;;;;;10.40;50.48;101303.53;4964467;28;99573;-78
2021/09/23 07:34:48;;;;;;;1999.90;999.90;;;;;;;10.40;50.37;101295.56;4958024;28;97167;-80
2021/09/23 07:37:16;;;;;;;1999.90;999.90;;;;;;;10.44;50.38;101299.25;4962663;28;97624;-81
2021/09/23 07:39:46;;;;;;;1999.90;999.90;;;;;;;10.46;50.14;101301.09;4975747;28;99429;-78
2021/09/23 07:42:16;;;;;;;1999.90;999.90;;;;;;;10.50;50.38;101297.69;4981911;28;99465;-80
2021/09/23 07:44:44;;;;;;;1999.90;999.90;;;;;;;10.55;50.22;101292.47;4998059;28;97042;-80
2021/09/23 07:47:12;;;;;;;1999.90;999.90;;;;;;;10.60;50.18;101290.84;4973930;28;96902;-80
2021/09/23 07:49:40;;;;;;;1999.90;999.90;;;;;;;10.62;50.36;101281.16;4982008;28;97702;-78
2021/09/23 07:52:09;;;;;;;1999.90;999.90;;;;;;;10.63;50.11;101265.22;4981908;28;99204;-78
2021/09/23 07:54:38;;;;;;;1999.90;999.90;;;;;;;10.67;50.28;101250.25;4957802;28;97165;-79
2021/09/23 07:57:06;;;;;;;1999.90;999.90;;;;;;;10.69;50.34;101249.44;4985818;28;96663;-80
2021/09/23 07:59:34;;;;;;;1999.90;999.90;;;;;;;10.73;50.23;101256.66;4968356;28;98856;-77
2021/09/23 08:02:03;;;;;;;1999.90;999.90;;;;;;;10.75;50.36;101244.28;4987892;28;97017;-79
2021/09/23 08:04:32;;;;;;;1999.90;999.90;;;;;;;10.80;50.10;101244.41;4979419;28;97104;-80
2021/09/23 08:07:00;;;;;;;1999.90;999.90;;;;;;;10.85;50.19;101242.78;4975476;28;98082;-79
2021/09/23 08:09:30;;;;;;;1999.90;999.90;;;;;;;10.91;50.10;101229.63;4989015;28;99131;-80
2021/09/23 08:11:59;;;;;;;1999.90;999.90;;;;;;;10.96;50.13;101220.00;4975654;28;100339;-80
2021/09/23 08:14:26;;;;;;;1999.90;999.90;;;;;;;11.03;50.07;101240.63;4965997;28;97180;-78
2021/09/23 08:17:12;;;;;;;1999.90;999.90;;;;;;;11.07;49.92;101223.84;4965974;28;96965;-79
2021/09/23 08:19:58;;;;;;;1999.90;999.90;;;;;;;11.13;50.18;101226.66;4981960;28;97788;-79
2021/09/23 08:22:38;;;;;;;1999.90;999.90;;;;;;;11.19;49.92;101216.19;4966900;28;99236;-79
2021/09/23 08:25:09;;;;;;;1999.90;999.90;;;;;;;11.25;49.77;101210.97;4966402;28;97389;-79
2021/09/23 08:27:37;;;;;;;1999.90;999.90;;;;;;;11.30;49.82;101209.38;4954976;28;97142;-79
2021/09/23 08:30:06;;;;;;;1999.90;999.90;;;;;;;11.35;49.76;101210.41;4989887;28;97691;-79
2021/09/23 08:32:34;;;;;;;1999.90;999.90;;;;;;;11.42;49.66;101200.78;4990996;28;96917;-77
2021/09/23 08:35:05;;;;;;;1999.90;999.90;;;;;;;11.49;49.49;101200.97;4965329;28;97134;-77
2021/09/23 08:37:35;;;;;;;1999.90;999.90;;;;;;;11.56;49.35;101188.72;4976029;28;97569;-78
2021/09/23 08:40:07;;;;;;;1999.90;999.90;;;;;;;11.64;49.15;101192.44;4974366;28;100445;-79
2021/09/23 08:42:37;;;;;;;1999.90;999.90;;;;;;;11.70;48.98;101188.16;4994070;28;99070;-79
2021/09/23 08:45:06;;;;;;;1999.90;999.90;;;;;;;11.79;48.55;101179.47;4965397;28;97227;-79
2021/09/23 08:47:35;;;;;;;1999.90;999.90;;;;;;;11.87;48.20;101173.41;4981259;28;96868;-78
2021/09/23 08:50:04;;;;;;;1999.90;999.90;;;;;;;11.94;48.25;101172.69;4975578;28;99734;-79
2021/09/23 08:52:32;;;;;;;1999.90;999.90;;;;;;;12.02;48.07;101164.84;4958257;28;97382;-79
2021/09/23 08:55:02;;;;;;;1999.90;999.90;;;;;;;12.08;47.76;101170.31;4967004;28;97485;-78
2021/09/23 08:57:30;;;;;;;1999.90;999.90;;;;;;;12.14;47.49;101152.66;4983636;28;96742;-79
2021/09/23 09:00:07;;;;;;;1999.90;999.90;;;;;;;12.21;47.33;101167.09;4966029;28;99193;-78
2021/09/23 09:02:37;;;;;;;1999.90;999.90;;;;;;;12.29;47.21;101156.56;4981464;28;100797;-77
2021/09/23 09:05:22;;;;;;;1999.90;999.90;;;;;;;12.37;46.83;101153.19;4966819;28;97050;-79
2021/09/23 09:08:05;;;;;;;1999.90;999.90;;;;;;;12.44;46.50;101141.75;4977052;28;96927;-79
2021/09/23 09:10:39;;;;;;;1999.90;999.90;;;;;;;12.50;46.19;101133.88;4982627;28;99134;-78
2021/09/23 09:13:08;;;;;;;1999.90;999.90;;;;;;;12.54;45.99;101133.06;4966015;28;100341;-78
2021/09/23 09:15:41;;;;;;;1999.90;999.90;;;;;;;12.60;45.69;101130.47;4957885;28;97196;-78
2021/09/23 09:18:14;;;;;;;1999.90;999.90;;;;;;;12.66;45.40;101119.00;4982582;28;96886;-78
2021/09/23 09:20:53;;;;;;;1999.90;999.90;;;;;;;12.69;45.16;101138.66;4956648;28;98849;-76
2021/09/23 09:23:26;;;;;;;1999.90;999.90;;;;;;;12.74;44.91;101110.28;4981715;28;100314;-78
2021/09/23 09:25:54;;;;;;;1999.90;999.90;;;;;;;12.79;45.01;101097.91;4980624;28;97004;-77
2021/09/23 09:28:23;;;;;;;1999.90;999.90;;;;;;;12.89;45.01;101101.63;4982128;28;97193;-77
2021/09/23 09:30:56;;;;;;;1999.90;999.90;;;;;;;12.95;44.75;101089.25;4965637;28;99192;-76
2021/09/23 09:33:34;;;;;;;1999.90;999.90;;;;;;;13.03;44.49;101089.44;4958359;28;98327;-78
2021/09/23 09:36:03;;;;;;;1999.90;999.90;;;;;;;13.11;44.40;101079.78;4992651;28;97136;-77
2021/09/23 09:38:33;;;;;;;1999.90;999.90;;;;;;;13.18;44.46;101061.16;4965211;28;96929;-77
2021/09/23 09:41:02;;;;;;;1999.90;999.90;;;;;;;13.26;44.10;101061.28;4955927;28;99922;-78
2021/09/23 09:43:30;;;;;;;1999.90;999.90;;;;;;;13.32;44.02;101077.41;4963964;28;100949;-77
2021/09/23 09:46:00;;;;;;;1999.90;999.90;;;;;;;13.38;43.63;101058.78;4976512;28;98006;-78
2021/09/23 09:48:31;;;;;;;1999.90;999.90;;;;;;;13.44;43.05;101058.84;4992343;28;97594;-77
2021/09/23 09:51:04;;;;;;;1999.90;999.90;;;;;;;13.50;42.61;101050.94;4959002;28;99774;-76
2021/09/23 09:53:33;;;;;;;1999.90;999.90;;;;;;;13.54;42.33;101050.09;4977859;28;98123;-78
2021/09/23 09:56:01;;;;;;;1999.90;999.90;;;;;;;13.62;42.29;101063.56;4982643;28;97224;-78
2021/09/23 09:58:31;;;;;;;1999.90;999.90;;;;;;;13.67;42.06;101040.44;4992448;28;96975;-77
2021/09/23 10:01:00;;;;;;;1999.90;999.90;;;;;;;13.73;42.00;101041.41;4965906;28;100194;-77
2021/09/23 10:03:30;;;;;;;1999.90;999.90;;;;;;;13.78;41.75;101042.41;4982827;28;97750;-78
2021/09/23 10:05:58;;;;;;;1999.90;999.90;;;;;;;13.81;41.47;101042.44;4978824;28;97027;-77
2021/09/23 10:08:27;;;;;;;1999.90;999.90;;;;;;;13.87;41.31;101037.19;4968396;28;97750;-78
2021/09/23 10:10:56;;;;;;;1999.90;999.90;;;;;;;13.92;41.08;101032.78;4985519;28;98162;-79
2021/09/23 10:13:27;;;;;;;1999.90;999.90;;;;;;;13.96;41.02;101039.97;4968960;28;99159;-79
2021/09/23 10:15:56;;;;;;;1999.90;999.90;;;;;;;13.99;40.91;101029.28;4984783;28;97345;-78
2021/09/23 10:18:28;;;;;;;1999.90;999.90;;;;;;;14.05;40.77;101037.38;4967861;28;97114;-77
2021/09/23 10:20:58;;;;;;;1999.90;999.90;;;;;;;14.10;40.58;101016.91;4959134;28;99352;-78
2021/09/23 10:23:30;;;;;;;1999.90;999.90;;;;;;;14.16;40.49;101016.09;4983075;28;97940;-79
2021/09/23 10:25:59;;;;;;;1999.90;999.90;;;;;;;14.23;40.29;101020.63;4959075;28;97010;-79
2021/09/23 10:28:28;;;;;;;1999.90;999.90;;;;;;;14.28;40.20;101012.66;4976062;28;97285;-78
2021/09/23 10:30:56;;;;;;;1999.90;999.90;;;;;;;14.34;40.29;100993.94;5005710;28;98012;-78
2021/09/23 10:33:24;;;;;;;1999.90;999.90;;;;;;;14.39;40.14;101001.13;4981977;28;98140;-77
2021/09/23 10:35:55;;;;;;;1999.90;999.90;;;;;;;14.45;40.07;100986.91;4987848;28;96956;-78
2021/09/23 10:38:28;;;;;;;1999.90;999.90;;;;;;;14.52;39.69;100992.31;4988666;28;96783;-78
2021/09/23 10:40:59;;;;;;;1999.90;999.90;;;;;;;14.60;40.14;100987.97;4962861;28;98370;-78
2021/09/23 10:43:31;;;;;;;1999.90;999.90;;;;;;;14.65;39.68;100974.59;4974156;28;99843;-77
2021/09/23 10:46:01;;;;;;;1999.90;999.90;;;;;;;14.72;39.78;100988.06;4986799;28;97551;-77
2021/09/23 10:48:42;;;;;;;1999.90;999.90;;;;;;;14.79;39.38;100965.78;4979282;28;96856;-78
2021/09/23 10:51:15;;;;;;;1999.90;999.90;;;;;;;14.85;39.48;100957.78;4966949;28;99802;-77
2021/09/23 10:53:49;;;;;;;1999.90;999.90;;;;;;;14.92;39.33;100958.72;4968754;28;98235;-77
2021/09/23 10:56:20;;;;;;;1999.90;999.90;;;;;;;15.01;39.42;100950.72;4958343;28;96793;-78
2021/09/23 10:58:51;;;;;;;1999.90;999.90;;;;;;;15.09;38.66;100963.31;4963105;28;98226;-78
2021/09/23 11:01:22;;;;;;;1999.90;999.90;;;;;;;15.13;38.08;100958.84;4984342;28;98009;-77